Time;durP1;ratioP1;P1;durP2;ratioP2;P2;SDS_P1;SDS_P2;PMS_P1;PMS_P2;Temp;Humidity;BMP_temperature;BMP_pressure;BME280_temperature;BME280_humidity;BME280_pressure;Samples;Min_cycle;Max_cycle;Signal;HPM_P1;HPM_P2
2022/09/03 00:00:16;;;;;;;;;;;17.70;72.20;;;;;;5051661;28;19991;-84
2022/09/03 00:02:44;;;;;;;;;;;17.70;72.60;;;;;;5051510;28;19928;-84
2022/09/03 00:05:17;;;;;;;;;;;17.70;70.90;;;;;;5052054;28;19920;-84
2022/09/03 00:07:54;;;;;;;;;;;17.60;72.40;;;;;;5035042;28;19979;-84
2022/09/03 00:10:23;;;;;;;;;;;17.60;71.30;;;;;;5035422;28;19967;-84
2022/09/03 00:12:49;;;;;;;;;;;17.60;71.70;;;;;;5051290;28;19932;-84
2022/09/03 00:15:19;;;;;;;;;;;17.60;71.70;;;;;;5051175;28;19927;-84
2022/09/03 00:17:51;;;;;;;;;;;17.50;71.90;;;;;;5051753;28;19920;-84
2022/09/03 00:20:33;;;;;;;;;;;17.50;72.50;;;;;;5051588;28;20007;-84
2022/09/03 00:23:00;;;;;;;;;;;17.50;71.50;;;;;;5050867;28;19935;-84
2022/09/03 00:25:36;;;;;;;;;;;17.40;71.90;;;;;;5051266;28;19921;-84
2022/09/03 00:28:04;;;;;;;;;;;17.40;72.50;;;;;;5051355;28;19921;-84
2022/09/03 00:30:30;;;;;;;;;;;17.40;72.90;;;;;;5051002;28;19924;-84
2022/09/03 00:32:59;;;;;;;;;;;17.30;73.50;;;;;;5050976;28;19932;-84
2022/09/03 00:35:30;;;;;;;;;;;17.30;73.80;;;;;;5051444;28;20393;-84
2022/09/03 00:37:56;;;;;;;;;;;17.30;73.50;;;;;;5051360;28;19944;-84
2022/09/03 00:40:31;;;;;;;;;;;17.20;73.70;;;;;;5051170;28;20382;-84
2022/09/03 00:43:21;;;;;;;;;;;17.20;73.70;;;;;;5033735;28;19920;-84
2022/09/03 00:45:53;;;;;;;;;;;17.10;73.10;;;;;;5051030;28;19925;-84
2022/09/03 00:48:18;;;;;;;;;;;17.10;76.80;;;;;;5050830;28;19927;-84
2022/09/03 00:50:48;;;;;;;;;;;17.10;76.90;;;;;;5050757;28;19920;-84
2022/09/03 00:53:18;;;;;;;;;;;17.00;75.30;;;;;;5050587;28;19925;-84
2022/09/03 00:55:46;;;;;;;;;;;17.00;75.80;;;;;;5050952;28;20386;-84
2022/09/03 00:58:29;;;;;;;;;;;16.90;75.50;;;;;;5050289;28;20003;-84
2022/09/03 01:00:55;;;;;;;;;;;16.90;77.60;;;;;;5050228;28;19929;-84
2022/09/03 01:03:25;;;;;;;;;;;16.90;77.10;;;;;;5050894;28;19920;-84
2022/09/03 01:06:02;;;;;;;;;;;16.80;78.20;;;;;;5033571;28;19921;-84
2022/09/03 01:08:45;;;;;;;;;;;16.80;77.40;;;;;;5034187;28;19921;-84
2022/09/03 01:11:29;;;;;;;;;;;16.80;79.40;;;;;;5050496;28;19966;-84
2022/09/03 01:14:07;;;;;;;;;;;16.70;82.70;;;;;;5050418;28;19925;-84
2022/09/03 01:16:44;;;;;;;;;;;16.70;82.10;;;;;;5050279;28;19930;-84
2022/09/03 01:19:17;;;;;;;;;;;16.70;82.30;;;;;;5033872;28;20390;-84
2022/09/03 01:21:51;;;;;;;;;;;16.60;80.30;;;;;;5033254;28;19921;-84
2022/09/03 01:24:58;;;;;;;;;;;16.60;79.40;;;;;;5050727;28;20327;-84
2022/09/03 01:27:35;;;;;;;;;;;16.60;81.60;;;;;;5032140;28;19921;-84
2022/09/03 01:30:06;;;;;;;;;;;16.60;78.00;;;;;;5048348;28;20011;-84
2022/09/03 01:32:50;;;;;;;;;;;16.60;79.10;;;;;;5033357;28;19921;-84
2022/09/03 01:35:21;;;;;;;;;;;16.60;79.10;;;;;;5049587;28;20462;-84
2022/09/03 01:37:56;;;;;;;;;;;16.60;78.40;;;;;;5050658;28;20293;-84
2022/09/03 01:40:37;;;;;;;;;;;16.60;78.90;;;;;;5034049;28;20262;-84
2022/09/03 01:43:11;;;;;;;;;;;16.60;81.00;;;;;;5033361;28;20422;-84
2022/09/03 01:45:47;;;;;;;;;;;16.60;78.80;;;;;;5050363;28;19920;-84
2022/09/03 01:48:13;;;;;;;;;;;16.60;79.40;;;;;;5033160;28;19921;-85
2022/09/03 01:50:44;;;;;;;;;;;16.60;78.40;;;;;;5033740;28;19932;-84
2022/09/03 01:53:29;;;;;;;;;;;16.70;79.30;;;;;;5049995;28;20031;-84
2022/09/03 01:56:01;;;;;;;;;;;16.60;80.30;;;;;;5049766;28;19921;-84
2022/09/03 01:58:32;;;;;;;;;;;16.60;79.70;;;;;;5033421;28;20302;-84
2022/09/03 02:01:02;;;;;;;;;;;16.60;81.30;;;;;;5051242;28;20358;-84
2022/09/03 02:03:36;;;;;;;;;;;16.60;79.60;;;;;;5033363;28;19931;-84
2022/09/03 02:06:02;;;;;;;;;;;16.60;78.60;;;;;;5049406;28;20385;-84
2022/09/03 02:08:28;;;;;;;;;;;16.60;81.40;;;;;;5050206;28;19928;-84
2022/09/03 02:10:58;;;;;;;;;;;16.60;82.50;;;;;;5052745;28;19921;-84
2022/09/03 02:13:26;;;;;;;;;;;16.50;82.00;;;;;;5053841;28;20447;-84
2022/09/03 02:15:55;;;;;;;;;;;16.60;81.60;;;;;;5054108;28;19927;-84
2022/09/03 02:18:25;;;;;;;;;;;16.60;81.70;;;;;;5053741;28;19972;-84
2022/09/03 02:20:52;;;;;;;;;;;16.50;80.00;;;;;;5053516;28;19925;-84
2022/09/03 02:23:17;;;;;;;;;;;16.60;78.90;;;;;;5053828;28;19920;-84
2022/09/03 02:25:51;;;;;;;;;;;16.60;78.20;;;;;;5037040;28;20000;-84
2022/09/03 02:28:17;;;;;;;;;;;16.60;78.80;;;;;;5053342;28;19925;-84
2022/09/03 02:30:42;;;;;;;;;;;16.60;78.60;;;;;;5036863;28;19944;-84
2022/09/03 02:33:08;;;;;;;;;;;16.60;79.70;;;;;;5053216;28;19929;-84
2022/09/03 02:35:34;;;;;;;;;;;16.60;78.90;;;;;;5052942;28;20035;-84
2022/09/03 02:38:10;;;;;;;;;;;16.60;78.10;;;;;;5036970;28;19921;-84
2022/09/03 02:40:35;;;;;;;;;;;16.60;78.20;;;;;;5053607;28;19982;-84
2022/09/03 02:43:03;;;;;;;;;;;16.60;78.80;;;;;;5036205;28;20382;-84
2022/09/03 02:45:28;;;;;;;;;;;16.60;77.70;;;;;;5036610;28;20375;-84
2022/09/03 02:47:55;;;;;;;;;;;16.60;77.50;;;;;;5053261;28;19975;-84
2022/09/03 02:50:20;;;;;;;;;;;16.60;77.50;;;;;;5036153;28;19931;-84
2022/09/03 02:52:46;;;;;;;;;;;16.60;77.90;;;;;;5053237;28;20344;-84
2022/09/03 02:55:11;;;;;;;;;;;16.60;77.80;;;;;;5052990;28;19925;-84
2022/09/03 02:57:37;;;;;;;;;;;16.60;78.10;;;;;;5052999;28;19921;-84
2022/09/03 03:00:03;;;;;;;;;;;16.60;77.40;;;;;;5054441;28;19997;-84
2022/09/03 03:02:28;;;;;;;;;;;16.60;77.00;;;;;;5052944;28;20448;-84
2022/09/03 03:04:54;;;;;;;;;;;16.60;77.80;;;;;;5054084;28;19925;-84
2022/09/03 03:07:20;;;;;;;;;;;16.60;77.10;;;;;;5036327;28;20021;-84
2022/09/03 03:09:45;;;;;;;;;;;16.60;77.60;;;;;;5052825;28;19920;-84
2022/09/03 03:12:11;;;;;;;;;;;16.50;77.10;;;;;;5052569;28;19924;-84
2022/09/03 03:14:36;;;;;;;;;;;16.50;77.50;;;;;;5052678;28;20464;-84
2022/09/03 03:17:02;;;;;;;;;;;16.50;77.10;;;;;;5036084;28;20382;-84
2022/09/03 03:19:27;;;;;;;;;;;16.50;77.50;;;;;;5052280;28;20309;-84
2022/09/03 03:21:53;;;;;;;;;;;16.50;76.80;;;;;;5052511;28;20020;-84
2022/09/03 03:24:18;;;;;;;;;;;16.50;78.40;;;;;;5035830;28;20441;-84
2022/09/03 03:26:44;;;;;;;;;;;16.50;77.60;;;;;;5052634;28;20015;-84
2022/09/03 03:29:13;;;;;;;;;;;16.50;77.40;;;;;;5036195;28;20400;-84
2022/09/03 03:31:39;;;;;;;;;;;16.50;77.70;;;;;;5052091;28;19974;-84
2022/09/03 03:34:05;;;;;;;;;;;16.40;77.90;;;;;;5052001;28;19924;-84
2022/09/03 03:36:31;;;;;;;;;;;16.40;79.30;;;;;;5052423;28;19928;-84
2022/09/03 03:38:57;;;;;;;;;;;16.40;78.30;;;;;;5052413;28;19927;-84
2022/09/03 03:41:24;;;;;;;;;;;16.40;78.80;;;;;;5052016;28;20023;-84
2022/09/03 03:43:53;;;;;;;;;;;16.40;79.40;;;;;;5035647;28;19932;-84
2022/09/03 03:46:20;;;;;;;;;;;16.30;79.50;;;;;;5051819;28;20353;-84
2022/09/03 03:48:47;;;;;;;;;;;16.30;80.10;;;;;;5051842;28;20443;-84
2022/09/03 03:51:12;;;;;;;;;;;16.30;80.10;;;;;;5051670;28;20402;-84
2022/09/03 03:53:38;;;;;;;;;;;16.30;80.70;;;;;;5035365;28;19979;-84
2022/09/03 03:56:05;;;;;;;;;;;16.20;81.00;;;;;;5052085;28;19948;-84
2022/09/03 03:58:31;;;;;;;;;;;16.20;80.30;;;;;;5035322;28;19921;-84
2022/09/03 04:01:04;;;;;;;;;;;16.20;82.20;;;;;;5035182;28;20377;-84
2022/09/03 04:03:29;;;;;;;;;;;16.20;81.00;;;;;;5051555;28;19925;-84
2022/09/03 04:05:56;;;;;;;;;;;16.10;81.80;;;;;;5051681;28;19928;-84
2022/09/03 04:08:21;;;;;;;;;;;16.10;82.30;;;;;;5035050;28;19928;-84
2022/09/03 04:10:47;;;;;;;;;;;16.10;81.30;;;;;;5051422;28;19921;-84
2022/09/03 04:13:13;;;;;;;;;;;16.00;83.10;;;;;;5034789;28;19931;-84
2022/09/03 04:15:38;;;;;;;;;;;16.10;82.40;;;;;;5035230;28;19925;-84
2022/09/03 04:18:04;;;;;;;;;;;16.00;83.60;;;;;;5051391;28;19921;-84
2022/09/03 04:20:29;;;;;;;;;;;16.00;83.00;;;;;;5034824;28;19925;-84
2022/09/03 04:22:59;;;;;;;;;;;16.00;83.60;;;;;;5051436;28;20015;-84
2022/09/03 04:25:25;;;;;;;;;;;16.00;85.00;;;;;;5051064;28;19920;-84
2022/09/03 04:27:51;;;;;;;;;;;16.00;83.80;;;;;;5051398;28;19921;-84
2022/09/03 04:30:17;;;;;;;;;;;15.90;83.80;;;;;;5051023;28;19924;-84
2022/09/03 04:32:52;;;;;;;;;;;15.90;84.80;;;;;;5050583;28;19927;-84
2022/09/03 04:35:18;;;;;;;;;;;15.90;85.80;;;;;;5051519;28;19982;-84
2022/09/03 04:37:43;;;;;;;;;;;15.90;84.90;;;;;;5034896;28;20371;-84
2022/09/03 04:40:09;;;;;;;;;;;15.80;85.50;;;;;;5050932;28;20424;-84
2022/09/03 04:42:34;;;;;;;;;;;15.80;86.20;;;;;;5034264;28;19959;-84
2022/09/03 04:45:00;;;;;;;;;;;15.80;87.50;;;;;;5050830;28;19925;-84
2022/09/03 04:47:26;;;;;;;;;;;15.80;88.70;;;;;;5034380;28;19925;-84
2022/09/03 04:49:54;;;;;;;;;;;15.80;87.10;;;;;;5050941;28;20409;-84
2022/09/03 04:52:19;;;;;;;;;;;15.80;88.10;;;;;;5050937;28;20059;-84
2022/09/03 04:54:45;;;;;;;;;;;15.80;86.20;;;;;;5050516;28;20481;-84
2022/09/03 04:57:10;;;;;;;;;;;15.70;86.50;;;;;;5034140;28;20004;-84
2022/09/03 04:59:36;;;;;;;;;;;15.70;87.60;;;;;;5033894;28;19925;-84
2022/09/03 05:02:02;;;;;;;;;;;15.70;89.10;;;;;;5050483;28;20305;-84
2022/09/03 05:04:27;;;;;;;;;;;15.70;86.80;;;;;;5050672;28;19976;-84
2022/09/03 05:06:53;;;;;;;;;;;15.70;87.80;;;;;;5051078;28;19983;-84
2022/09/03 05:09:18;;;;;;;;;;;15.70;88.80;;;;;;5050623;28;19921;-84
2022/09/03 05:11:44;;;;;;;;;;;15.70;88.10;;;;;;5033755;28;19928;-84
2022/09/03 05:14:12;;;;;;;;;;;15.70;88.40;;;;;;5050674;28;20413;-84
2022/09/03 05:16:38;;;;;;;;;;;15.70;89.90;;;;;;5050444;28;19921;-84
2022/09/03 05:19:04;;;;;;;;;;;15.70;90.30;;;;;;5050432;28;19927;-84
2022/09/03 05:21:30;;;;;;;;;;;15.70;89.50;;;;;;5033465;28;20015;-84
2022/09/03 05:23:56;;;;;;;;;;;15.70;89.20;;;;;;5033900;28;19971;-84
2022/09/03 05:26:25;;;;;;;;;;;15.70;90.20;;;;;;5051170;28;19920;-84
2022/09/03 05:28:52;;;;;;;;;;;15.70;89.40;;;;;;5050710;28;19931;-84
2022/09/03 05:31:19;;;;;;;;;;;15.70;90.60;;;;;;5049837;28;20519;-84
2022/09/03 05:33:46;;;;;;;;;;;15.70;90.00;;;;;;5049692;28;19951;-84
2022/09/03 05:36:12;;;;;;;;;;;15.70;89.60;;;;;;5050153;28;20286;-84
2022/09/03 05:38:38;;;;;;;;;;;15.70;90.80;;;;;;5033855;28;19980;-84
2022/09/03 05:41:05;;;;;;;;;;;15.80;90.40;;;;;;5033064;28;20455;-84
2022/09/03 05:43:31;;;;;;;;;;;15.80;90.40;;;;;;5050287;28;19968;-84
2022/09/03 05:45:58;;;;;;;;;;;15.80;90.10;;;;;;5036712;28;19979;-84
2022/09/03 05:48:24;;;;;;;;;;;15.80;90.90;;;;;;5033063;28;20378;-84
2022/09/03 05:50:57;;;;;;;;;;;15.80;90.50;;;;;;5054379;28;20008;-84
2022/09/03 05:53:22;;;;;;;;;;;15.80;91.20;;;;;;5055411;28;19952;-84
2022/09/03 05:55:53;;;;;;;;;;;15.80;91.30;;;;;;5055055;28;19929;-84
2022/09/03 05:58:19;;;;;;;;;;;15.80;91.30;;;;;;5054574;28;19921;-84
2022/09/03 06:00:44;;;;;;;;;;;15.80;91.60;;;;;;5054065;28;19936;-84
2022/09/03 06:03:10;;;;;;;;;;;15.80;91.50;;;;;;5053838;28;19921;-84
2022/09/03 06:05:35;;;;;;;;;;;15.80;91.40;;;;;;5055242;28;19927;-84
2022/09/03 06:08:01;;;;;;;;;;;15.80;92.00;;;;;;5053850;28;20352;-84
2022/09/03 06:10:26;;;;;;;;;;;15.80;91.70;;;;;;5053737;28;19927;-84
2022/09/03 06:12:52;;;;;;;;;;;15.80;91.90;;;;;;5053865;28;19920;-84
2022/09/03 06:15:17;;;;;;;;;;;15.80;92.50;;;;;;5053776;28;19925;-84
2022/09/03 06:17:43;;;;;;;;;;;15.90;92.30;;;;;;5037386;28;19921;-84
2022/09/03 06:20:08;;;;;;;;;;;15.90;93.30;;;;;;5053767;28;20461;-84
2022/09/03 06:22:34;;;;;;;;;;;15.90;92.90;;;;;;5053195;28;19925;-84
2022/09/03 06:24:59;;;;;;;;;;;15.90;92.90;;;;;;5051858;28;19974;-84
2022/09/03 06:27:27;;;;;;;;;;;15.90;93.00;;;;;;5037070;28;20390;-84
2022/09/03 06:29:52;;;;;;;;;;;16.00;93.70;;;;;;5053954;28;19921;-84
2022/09/03 06:32:18;;;;;;;;;;;16.00;94.80;;;;;;5053130;28;19921;-83
2022/09/03 06:34:43;;;;;;;;;;;16.00;94.80;;;;;;5036801;28;19978;-83
2022/09/03 06:37:09;;;;;;;;;;;16.00;93.90;;;;;;5087192;28;19924;-83
2022/09/03 06:39:34;;;;;;;;;;;16.10;94.00;;;;;;5053518;28;19925;-83
2022/09/03 06:42:00;;;;;;;;;;;16.10;94.10;;;;;;5053131;28;20378;-84
2022/09/03 06:44:25;;;;;;;;;;;16.10;94.20;;;;;;5087199;28;19921;-83
2022/09/03 06:46:52;;;;;;;;;;;16.20;94.10;;;;;;5086670;28;19921;-84
2022/09/03 06:49:18;;;;;;;;;;;16.20;93.40;;;;;;5036497;28;19921;-83
2022/09/03 06:51:44;;;;;;;;;;;16.30;93.50;;;;;;5036199;28;20058;-84
2022/09/03 06:54:10;;;;;;;;;;;16.30;94.50;;;;;;5086435;28;20019;-84
2022/09/03 06:56:37;;;;;;;;;;;16.40;93.60;;;;;;5052944;28;20375;-83
2022/09/03 06:59:04;;;;;;;;;;;16.40;93.50;;;;;;5053268;28;20043;-83
2022/09/03 07:01:30;;;;;;;;;;;16.50;93.20;;;;;;5052579;28;19925;-84
2022/09/03 07:03:57;;;;;;;;;;;16.50;92.90;;;;;;5052994;28;19928;-84
2022/09/03 07:06:24;;;;;;;;;;;16.60;92.40;;;;;;5052984;28;19921;-83
2022/09/03 07:08:49;;;;;;;;;;;16.60;92.40;;;;;;5036325;28;19924;-83
2022/09/03 07:11:18;;;;;;;;;;;16.70;93.10;;;;;;5052607;28;19928;-84
2022/09/03 07:13:48;;;;;;;;;;;16.80;92.00;;;;;;5052803;28;19947;-84
2022/09/03 07:16:15;;;;;;;;;;;16.80;92.00;;;;;;5046199;28;19920;-84
2022/09/03 07:18:42;;;;;;;;;;;16.90;92.00;;;;;;5052744;28;20450;-84
2022/09/03 07:21:09;;;;;;;;;;;16.90;92.60;;;;;;5052094;28;19931;-84
2022/09/03 07:23:35;;;;;;;;;;;17.00;91.60;;;;;;5035751;28;19920;-84
2022/09/03 07:26:02;;;;;;;;;;;17.10;91.10;;;;;;5052578;28;19928;-84
2022/09/03 07:28:28;;;;;;;;;;;17.10;90.90;;;;;;5085995;28;19927;-84
2022/09/03 07:30:59;;;;;;;;;;;17.20;90.90;;;;;;5052236;28;20302;-84
2022/09/03 07:33:25;;;;;;;;;;;17.30;90.50;;;;;;5052361;28;19948;-84
2022/09/03 07:35:50;;;;;;;;;;;17.30;90.30;;;;;;5036022;28;19920;-83
2022/09/03 07:38:19;;;;;;;;;;;17.40;90.30;;;;;;5052052;28;20361;-84
2022/09/03 07:40:45;;;;;;;;;;;17.50;90.00;;;;;;5032828;28;19928;-84
2022/09/03 07:43:11;;;;;;;;;;;17.60;89.90;;;;;;5049208;28;20301;-84
2022/09/03 07:45:37;;;;;;;;;;;17.60;89.30;;;;;;5051784;28;19920;-84
2022/09/03 07:48:03;;;;;;;;;;;17.70;89.50;;;;;;5035392;28;19921;-84
2022/09/03 07:50:32;;;;;;;;;;;17.80;88.50;;;;;;5051812;28;19943;-84
2022/09/03 07:52:58;;;;;;;;;;;17.80;88.10;;;;;;5051413;28;19921;-84
2022/09/03 07:55:24;;;;;;;;;;;17.90;86.60;;;;;;5085867;28;20291;-84
2022/09/03 07:57:54;;;;;;;;;;;17.90;85.60;;;;;;5051958;28;20051;-84
2022/09/03 08:00:19;;;;;;;;;;;18.00;85.20;;;;;;5051682;28;19921;-84
2022/09/03 08:02:45;;;;;;;;;;;18.10;84.80;;;;;;5034774;28;19982;-84
2022/09/03 08:05:10;;;;;;;;;;;18.20;84.70;;;;;;5085427;28;20009;-83
2022/09/03 08:07:36;;;;;;;;;;;18.30;84.20;;;;;;5051021;28;20322;-83
2022/09/03 08:10:01;;;;;;;;;;;18.30;83.20;;;;;;5068668;28;20007;-83
2022/09/03 08:12:27;;;;;;;;;;;18.40;83.40;;;;;;5051639;28;19979;-83
2022/09/03 08:14:52;;;;;;;;;;;18.40;83.10;;;;;;5084877;28;20381;-84
2022/09/03 08:17:18;;;;;;;;;;;18.50;82.90;;;;;;5084865;28;19968;-84
2022/09/03 08:19:45;;;;;;;;;;;18.60;82.20;;;;;;5051654;28;19971;-83
2022/09/03 08:22:10;;;;;;;;;;;18.70;81.20;;;;;;5050881;28;19950;-84
2022/09/03 08:24:36;;;;;;;;;;;18.80;80.90;;;;;;5051392;28;19925;-84
2022/09/03 08:27:02;;;;;;;;;;;18.80;81.80;;;;;;5034814;28;20058;-84
2022/09/03 08:29:27;;;;;;;;;;;18.90;81.50;;;;;;5034574;28;19921;-84
2022/09/03 08:31:53;;;;;;;;;;;19.00;80.80;;;;;;5050617;28;19921;-84
2022/09/03 08:34:19;;;;;;;;;;;19.10;80.40;;;;;;5034685;28;19932;-84
2022/09/03 08:36:45;;;;;;;;;;;19.20;79.00;;;;;;5044646;28;19921;-84
2022/09/03 08:39:11;;;;;;;;;;;19.20;78.90;;;;;;5051244;28;20410;-84
2022/09/03 08:41:44;;;;;;;;;;;19.30;78.60;;;;;;5050772;28;19920;-84
2022/09/03 08:44:13;;;;;;;;;;;19.40;78.60;;;;;;5079467;28;19921;-84
2022/09/03 08:46:50;;;;;;;;;;;19.50;77.20;;;;;;5036597;28;19925;-84
2022/09/03 08:49:37;;;;;;;;;;;19.60;76.00;;;;;;5030805;28;19925;-84
2022/09/03 08:52:06;;;;;;;;;;;19.60;75.70;;;;;;5030666;28;19927;-84
2022/09/03 08:54:34;;;;;;;;;;;19.70;76.30;;;;;;5032297;28;22319;-84
2022/09/03 08:57:00;;;;;;;;;;;19.80;75.60;;;;;;5031002;28;20338;-84
2022/09/03 08:59:27;;;;;;;;;;;19.90;75.10;;;;;;5034637;28;19921;-84
2022/09/03 09:01:58;;;;;;;;;;;19.90;74.00;;;;;;5050492;28;19978;-84
2022/09/03 09:04:42;;;;;;;;;;;20.00;74.10;;;;;;5050736;28;20015;-84
2022/09/03 09:07:10;;;;;;;;;;;20.10;73.70;;;;;;5050475;28;19967;-84
2022/09/03 09:09:36;;;;;;;;;;;20.20;73.70;;;;;;5050735;28;20340;-84
2022/09/03 09:12:21;;;;;;;;;;;20.30;72.90;;;;;;5050413;28;20390;-84
2022/09/03 09:15:00;;;;;;;;;;;20.40;72.00;;;;;;5050134;28;19931;-84
2022/09/03 09:17:51;;;;;;;;;;;20.50;71.00;;;;;;5050167;28;19928;-84
2022/09/03 09:20:41;;;;;;;;;;;20.60;71.30;;;;;;5024299;28;19927;-84
2022/09/03 09:23:09;;;;;;;;;;;20.70;71.80;;;;;;5047341;28;19982;-84
2022/09/03 09:25:38;;;;;;;;;;;20.80;70.60;;;;;;5033962;28;20042;-85
2022/09/03 09:28:12;;;;;;;;;;;20.90;70.30;;;;;;5034177;28;19925;-85
2022/09/03 09:30:38;;;;;;;;;;;20.90;70.60;;;;;;5033535;28;19921;-85
2022/09/03 09:33:04;;;;;;;;;;;21.00;69.60;;;;;;5049983;28;19928;-85
2022/09/03 09:35:29;;;;;;;;;;;21.10;69.20;;;;;;5033326;28;19921;-85
2022/09/03 09:37:57;;;;;;;;;;;21.20;69.20;;;;;;5050208;28;19927;-85
2022/09/03 09:40:29;;;;;;;;;;;21.30;68.90;;;;;;5050170;28;19920;-85
2022/09/03 09:43:02;;;;;;;;;;;21.40;68.10;;;;;;5033911;28;19971;-85
2022/09/03 09:45:28;;;;;;;;;;;21.50;67.90;;;;;;5049893;28;19975;-84
2022/09/03 09:47:55;;;;;;;;;;;21.50;67.60;;;;;;5049949;28;19968;-83
2022/09/03 09:50:21;;;;;;;;;;;21.70;67.50;;;;;;5050170;28;20007;-83
2022/09/03 09:52:47;;;;;;;;;;;21.70;67.40;;;;;;5016632;28;19920;-84
2022/09/03 09:55:18;;;;;;;;;;;21.80;66.80;;;;;;5049554;28;20379;-84
2022/09/03 09:57:43;;;;;;;;;;;21.90;66.00;;;;;;5033438;28;19925;-84
2022/09/03 10:00:10;;;;;;;;;;;22.00;65.70;;;;;;5051201;28;19927;-84
2022/09/03 10:02:36;;;;;;;;;;;22.10;65.50;;;;;;5033012;28;19979;-84
2022/09/03 10:05:13;;;;;;;;;;;22.20;64.40;;;;;;5049660;28;19921;-85
2022/09/03 10:07:38;;;;;;;;;;;22.20;63.60;;;;;;5033245;28;19921;-85
2022/09/03 10:10:15;;;;;;;;;;;22.40;63.60;;;;;;5049942;28;20268;-84
2022/09/03 10:12:43;;;;;;;;;;;22.40;63.20;;;;;;5033082;28;19978;-84
2022/09/03 10:15:16;;;;;;;;;;;22.60;62.70;;;;;;5049509;28;19932;-85
2022/09/03 10:17:54;;;;;;;;;;;22.60;62.80;;;;;;5049997;28;19921;-85
2022/09/03 10:20:32;;;;;;;;;;;22.80;62.00;;;;;;5050906;28;19928;-84
2022/09/03 10:23:09;;;;;;;;;;;22.80;62.20;;;;;;5033276;28;19928;-84
2022/09/03 10:25:54;;;;;;;;;;;22.90;60.30;;;;;;5033102;28;20058;-85
2022/09/03 10:28:22;;;;;;;;;;;23.10;60.50;;;;;;5033308;28;20350;-84
2022/09/03 10:31:10;;;;;;;;;;;23.10;60.50;;;;;;5050786;28;19920;-85
2022/09/03 10:33:56;;;;;;;;;;;23.20;60.00;;;;;;5043075;28;20015;-84
2022/09/03 10:36:30;;;;;;;;;;;23.30;59.20;;;;;;5026088;28;19924;-84
2022/09/03 10:39:12;;;;;;;;;;;23.40;58.40;;;;;;5053539;28;19921;-84
2022/09/03 10:41:58;;;;;;;;;;;23.50;58.00;;;;;;5052750;28;19920;-84
2022/09/03 10:44:34;;;;;;;;;;;23.60;57.20;;;;;;5052953;28;20448;-84
2022/09/03 10:47:03;;;;;;;;;;;23.70;56.10;;;;;;5053319;28;20287;-85
2022/09/03 10:49:48;;;;;;;;;;;23.70;55.80;;;;;;5036507;28;19920;-85
2022/09/03 10:52:17;;;;;;;;;;;23.90;55.90;;;;;;5035841;28;19921;-84
2022/09/03 10:54:51;;;;;;;;;;;24.00;55.40;;;;;;5053110;28;19951;-85
2022/09/03 10:57:30;;;;;;;;;;;24.00;54.30;;;;;;5052515;28;19924;-85
2022/09/03 11:00:07;;;;;;;;;;;24.10;54.20;;;;;;5053142;28;19927;-85
2022/09/03 11:02:36;;;;;;;;;;;24.20;54.60;;;;;;5052638;28;19925;-85
2022/09/03 11:05:05;;;;;;;;;;;24.30;53.40;;;;;;5052974;28;19921;-85
2022/09/03 11:07:36;;;;;;;;;;;24.50;53.50;;;;;;5052724;28;19931;-85
2022/09/03 11:10:04;;;;;;;;;;;24.50;52.50;;;;;;5049775;28;19927;-84
2022/09/03 11:12:33;;;;;;;;;;;24.60;51.20;;;;;;5074236;28;20579;-85
2022/09/03 11:15:06;;;;;;;;;;;24.60;50.10;;;;;;5052648;28;19932;-84
2022/09/03 11:17:37;;;;;;;;;;;24.70;51.50;;;;;;5017114;28;19920;-85
2022/09/03 11:20:11;;;;;;;;;;;24.80;52.00;;;;;;5032419;28;19928;-85
2022/09/03 11:22:37;;;;;;;;;;;24.90;51.00;;;;;;5032400;28;19929;-85
2022/09/03 11:25:06;;;;;;;;;;;25.00;50.20;;;;;;5049143;28;19921;-85
2022/09/03 11:27:34;;;;;;;;;;;25.10;51.10;;;;;;5049604;28;19921;-85
2022/09/03 11:30:02;;;;;;;;;;;25.20;50.40;;;;;;5032107;28;19925;-84
2022/09/03 11:32:34;;;;;;;;;;;25.30;50.10;;;;;;5048851;28;20047;-85
2022/09/03 11:34:59;;;;;;;;;;;25.40;48.30;;;;;;5032111;28;19973;-84
2022/09/03 11:37:26;;;;;;;;;;;25.50;49.30;;;;;;5032427;28;20413;-85
2022/09/03 11:39:54;;;;;;;;;;;25.50;49.90;;;;;;5033117;28;20282;-85
2022/09/03 11:42:27;;;;;;;;;;;25.70;49.20;;;;;;5030478;28;19928;-85
2022/09/03 11:44:58;;;;;;;;;;;25.70;49.10;;;;;;5049115;28;19944;-85
2022/09/03 11:47:36;;;;;;;;;;;25.90;47.70;;;;;;5032263;28;20016;-85
2022/09/03 11:50:19;;;;;;;;;;;25.90;49.00;;;;;;5031886;28;19971;-85
2022/09/03 11:52:46;;;;;;;;;;;26.00;47.90;;;;;;5031637;28;19921;-85
2022/09/03 11:55:22;;;;;;;;;;;26.10;48.30;;;;;;5031734;28;19925;-85
2022/09/03 11:57:48;;;;;;;;;;;26.20;47.30;;;;;;5031799;28;19921;-85
2022/09/03 12:00:16;;;;;;;;;;;26.30;48.20;;;;;;5049548;28;19928;-85
2022/09/03 12:02:55;;;;;;;;;;;26.40;47.30;;;;;;5048592;28;19924;-85
2022/09/03 12:05:26;;;;;;;;;;;26.50;46.70;;;;;;5051804;28;20019;-85
2022/09/03 12:08:10;;;;;;;;;;;26.50;45.50;;;;;;5051567;28;19921;-85
2022/09/03 12:10:42;;;;;;;;;;;26.70;46.20;;;;;;5051298;28;19920;-85
2022/09/03 12:13:28;;;;;;;;;;;26.90;46.90;;;;;;5051146;28;20307;-85
2022/09/03 12:16:02;;;;;;;;;;;26.90;45.40;;;;;;5050612;28;19921;-85
2022/09/03 12:18:29;;;;;;;;;;;27.00;44.70;;;;;;5051500;28;19927;-84
2022/09/03 12:20:55;;;;;;;;;;;27.10;45.10;;;;;;5051246;28;19979;-85
2022/09/03 12:23:28;;;;;;;;;;;27.30;45.50;;;;;;5051638;28;20022;-85
2022/09/03 12:25:54;;;;;;;;;;;27.40;44.50;;;;;;5051223;28;19921;-85
2022/09/03 12:28:23;;;;;;;;;;;27.50;45.10;;;;;;5034424;28;20309;-85
2022/09/03 12:30:52;;;;;;;;;;;27.60;43.90;;;;;;5034649;28;19924;-85
2022/09/03 12:33:18;;;;;;;;;;;27.70;43.40;;;;;;5050881;28;19927;-85
2022/09/03 12:35:54;;;;;;;;;;;27.80;44.00;;;;;;5051142;28;19921;-85
2022/09/03 12:38:26;;;;;;;;;;;28.00;44.30;;;;;;5051554;28;19964;-85
2022/09/03 12:40:52;;;;;;;;;;;28.20;44.80;;;;;;5084080;28;19975;-85
2022/09/03 12:43:17;;;;;;;;;;;28.40;43.50;;;;;;5051080;28;19920;-85
2022/09/03 12:45:44;;;;;;;;;;;28.50;43.00;;;;;;5051371;28;19921;-85
2022/09/03 12:48:17;;;;;;;;;;;28.60;42.50;;;;;;5050937;28;19970;-85
2022/09/03 12:50:43;;;;;;;;;;;28.60;42.60;;;;;;5051270;28;20301;-85
2022/09/03 12:53:10;;;;;;;;;;;28.70;43.00;;;;;;5050132;28;20000;-85
2022/09/03 12:55:41;;;;;;;;;;;28.90;43.20;;;;;;5050265;28;19925;-85
2022/09/03 12:58:07;;;;;;;;;;;29.10;42.50;;;;;;5050901;28;19942;-85
2022/09/03 13:00:35;;;;;;;;;;;29.30;42.50;;;;;;5050270;28;20394;-85
2022/09/03 13:03:09;;;;;;;;;;;29.40;41.20;;;;;;5050671;28;19947;-85
2022/09/03 13:05:41;;;;;;;;;;;29.30;41.20;;;;;;5050752;28;20008;-85
2022/09/03 13:08:08;;;;;;;;;;;29.60;42.40;;;;;;5034286;28;19932;-85
2022/09/03 13:10:40;;;;;;;;;;;29.70;40.80;;;;;;5033438;28;19967;-85
2022/09/03 13:13:20;;;;;;;;;;;30.10;40.60;;;;;;5050439;28;20031;-85
2022/09/03 13:16:01;;;;;;;;;;;30.30;40.10;;;;;;5050092;28;19921;-85
2022/09/03 13:18:31;;;;;;;;;;;30.30;40.50;;;;;;5051476;28;19927;-85
2022/09/03 13:21:11;;;;;;;;;;;30.70;40.30;;;;;;5050217;28;19921;-85
2022/09/03 13:24:06;;;;;;;;;;;30.90;38.80;;;;;;5050336;28;19925;-85
2022/09/03 13:26:50;;;;;;;;;;;31.10;39.10;;;;;;5045318;28;19921;-85
2022/09/03 13:29:24;;;;;;;;;;;31.10;38.60;;;;;;5033820;28;19931;-85
2022/09/03 13:31:53;;;;;;;;;;;31.20;38.30;;;;;;5049676;28;19921;-85
2022/09/03 13:34:21;;;;;;;;;;;31.20;38.80;;;;;;5032988;28;19925;-85
2022/09/03 13:36:55;;;;;;;;;;;31.10;39.20;;;;;;5050340;28;20008;-85
2022/09/03 13:39:25;;;;;;;;;;;31.30;38.90;;;;;;5050154;28;20011;-85
2022/09/03 13:42:04;;;;;;;;;;;31.70;38.30;;;;;;5049646;28;20340;-85
2022/09/03 13:44:49;;;;;;;;;;;32.10;38.40;;;;;;5050129;28;20382;-85
2022/09/03 13:47:29;;;;;;;;;;;32.20;38.30;;;;;;5049397;28;19920;-85
2022/09/03 13:50:21;;;;;;;;;;;32.40;37.30;;;;;;5033602;28;19921;-85
2022/09/03 13:52:52;;;;;;;;;;;32.40;37.10;;;;;;5050149;28;19943;-85
2022/09/03 13:55:24;;;;;;;;;;;32.10;36.60;;;;;;5032971;28;19925;-85
2022/09/03 13:57:52;;;;;;;;;;;32.10;37.60;;;;;;5033793;28;19929;-85
2022/09/03 14:00:23;;;;;;;;;;;32.20;36.80;;;;;;5051394;28;20378;-85
2022/09/03 14:03:15;;;;;;;;;;;32.20;36.40;;;;;;5049505;28;19921;-85
2022/09/03 14:05:41;;;;;;;;;;;32.20;36.30;;;;;;5037696;28;19978;-85
2022/09/03 14:08:14;;;;;;;;;;;32.20;36.90;;;;;;5054090;28;19925;-85
2022/09/03 14:10:42;;;;;;;;;;;32.20;36.50;;;;;;5054043;28;20379;-85
2022/09/03 14:13:29;;;;;;;;;;;32.20;36.10;;;;;;5053507;28;19925;-85
2022/09/03 14:16:07;;;;;;;;;;;32.20;36.70;;;;;;5053809;28;19944;-86
2022/09/03 14:18:32;;;;;;;;;;;32.40;36.40;;;;;;5053771;28;19920;-85
2022/09/03 14:21:03;;;;;;;;;;;32.30;36.10;;;;;;5054606;28;20314;-86
2022/09/03 14:23:40;;;;;;;;;;;32.00;36.70;;;;;;5053797;28;19921;-86
2022/09/03 14:26:13;;;;;;;;;;;31.90;37.20;;;;;;5053383;28;19920;-85
2022/09/03 14:28:40;;;;;;;;;;;31.80;36.20;;;;;;5054139;28;19943;-85
2022/09/03 14:31:25;;;;;;;;;;;31.80;36.70;;;;;;5053196;28;19979;-85